sensor_id;sensor_type;location;lat;lon;timestamp;temperature;humidity
55036;DHT22;40936;53.008;6.556;2022-12-18T00:00:45;1.20;1.00
55036;DHT22;40936;53.008;6.556;2022-12-18T00:03:13;3.30;1.00
55036;DHT22;40936;53.008;6.556;2022-12-18T00:05:49;0.80;1.00
55036;DHT22;40936;53.008;6.556;2022-12-18T00:08:15;-0.80;2.60
55036;DHT22;40936;53.008;6.556;2022-12-18T00:10:41;2.40;1.00
55036;DHT22;40936;53.008;6.556;2022-12-18T00:13:07;-0.50;1.00
55036;DHT22;40936;53.008;6.556;2022-12-18T00:15:37;3.00;1.00
55036;DHT22;40936;53.008;6.556;2022-12-18T00:18:03;2.20;1.00
55036;DHT22;40936;53.008;6.556;2022-12-18T00:20:29;1.40;1.00
55036;DHT22;40936;53.008;6.556;2022-12-18T00:22:55;-2.30;1.00
55036;DHT22;40936;53.008;6.556;2022-12-18T00:25:21;3.40;1.00
55036;DHT22;40936;53.008;6.556;2022-12-18T00:32:39;-0.70;99.90
55036;DHT22;40936;53.008;6.556;2022-12-18T00:35:05;0.80;99.90
55036;DHT22;40936;53.008;6.556;2022-12-18T00:37:33;0.80;99.90
55036;DHT22;40936;53.008;6.556;2022-12-18T00:47:35;-0.10;1.00
55036;DHT22;40936;53.008;6.556;2022-12-18T00:50:01;1.00;1.00
55036;DHT22;40936;53.008;6.556;2022-12-18T00:52:27;0.80;1.00
55036;DHT22;40936;53.008;6.556;2022-12-18T00:54:52;1.30;1.00
55036;DHT22;40936;53.008;6.556;2022-12-18T00:57:18;-0.40;1.00
55036;DHT22;40936;53.008;6.556;2022-12-18T01:02:10;0.20;1.00
55036;DHT22;40936;53.008;6.556;2022-12-18T01:07:02;0.50;1.00
55036;DHT22;40936;53.008;6.556;2022-12-18T01:11:54;-0.20;1.00
55036;DHT22;40936;53.008;6.556;2022-12-18T01:19:12;0.40;99.90
55036;DHT22;40936;53.008;6.556;2022-12-18T01:21:38;4.10;1.00
55036;DHT22;40936;53.008;6.556;2022-12-18T01:24:04;2.50;1.00
55036;DHT22;40936;53.008;6.556;2022-12-18T01:28:56;-0.40;1.00
55036;DHT22;40936;53.008;6.556;2022-12-18T01:31:25;0.10;1.00
55036;DHT22;40936;53.008;6.556;2022-12-18T01:33:51;0.70;1.00
55036;DHT22;40936;53.008;6.556;2022-12-18T01:36:20;1.40;1.00
55036;DHT22;40936;53.008;6.556;2022-12-18T01:38:46;0.60;1.00
55036;DHT22;40936;53.008;6.556;2022-12-18T01:43:56;2.90;1.00
55036;DHT22;40936;53.008;6.556;2022-12-18T01:46:24;-1.70;1.00
55036;DHT22;40936;53.008;6.556;2022-12-18T01:49:00;0.40;1.00
55036;DHT22;40936;53.008;6.556;2022-12-18T01:51:27;0.30;1.00
55036;DHT22;40936;53.008;6.556;2022-12-18T01:56:20;0.40;1.00
55036;DHT22;40936;53.008;6.556;2022-12-18T01:59:07;0.40;1.00
55036;DHT22;40936;53.008;6.556;2022-12-18T02:04:25;1.20;1.00
55036;DHT22;40936;53.008;6.556;2022-12-18T02:06:55;-0.50;1.00
55036;DHT22;40936;53.008;6.556;2022-12-18T02:09:36;0.60;1.00
55036;DHT22;40936;53.008;6.556;2022-12-18T02:17:13;-0.10;99.90
55036;DHT22;40936;53.008;6.556;2022-12-18T02:20:20;0.20;1.00
55036;DHT22;40936;53.008;6.556;2022-12-18T02:27:53;0.70;1.00
55036;DHT22;40936;53.008;6.556;2022-12-18T02:30:22;0.30;1.00
55036;DHT22;40936;53.008;6.556;2022-12-18T02:32:52;-0.10;1.00
55036;DHT22;40936;53.008;6.556;2022-12-18T02:35:29;0.30;99.90
55036;DHT22;40936;53.008;6.556;2022-12-18T02:40:24;0.20;99.90
55036;DHT22;40936;53.008;6.556;2022-12-18T02:42:50;0.10;1.00
55036;DHT22;40936;53.008;6.556;2022-12-18T02:45:15;0.30;1.00
55036;DHT22;40936;53.008;6.556;2022-12-18T02:47:43;-0.10;99.90
55036;DHT22;40936;53.008;6.556;2022-12-18T02:53:01;-0.10;99.90
55036;DHT22;40936;53.008;6.556;2022-12-18T03:00:41;1.50;1.00
55036;DHT22;40936;53.008;6.556;2022-12-18T03:03:16;0.60;99.90
55036;DHT22;40936;53.008;6.556;2022-12-18T03:05:57;0.20;99.90
55036;DHT22;40936;53.008;6.556;2022-12-18T03:08:35;-0.70;1.00
55036;DHT22;40936;53.008;6.556;2022-12-18T03:11:04;1.00;99.90
55036;DHT22;40936;53.008;6.556;2022-12-18T03:13:38;-1.20;99.90
55036;DHT22;40936;53.008;6.556;2022-12-18T03:16:10;-0.20;99.90
55036;DHT22;40936;53.008;6.556;2022-12-18T03:18:46;-0.20;99.90
55036;DHT22;40936;53.008;6.556;2022-12-18T03:21:14;-0.20;99.90
55036;DHT22;40936;53.008;6.556;2022-12-18T03:23:46;2.30;99.90
55036;DHT22;40936;53.008;6.556;2022-12-18T03:26:16;0.90;99.90
55036;DHT22;40936;53.008;6.556;2022-12-18T03:28:47;-2.40;99.90
55036;DHT22;40936;53.008;6.556;2022-12-18T03:31:15;1.10;99.90
55036;DHT22;40936;53.008;6.556;2022-12-18T03:33:46;1.30;99.90
55036;DHT22;40936;53.008;6.556;2022-12-18T03:41:15;-0.30;99.90
55036;DHT22;40936;53.008;6.556;2022-12-18T03:44:03;-0.40;99.90
55036;DHT22;40936;53.008;6.556;2022-12-18T03:49:26;-1.90;99.90
55036;DHT22;40936;53.008;6.556;2022-12-18T03:54:58;-0.50;99.90
55036;DHT22;40936;53.008;6.556;2022-12-18T03:57:27;1.90;99.90
55036;DHT22;40936;53.008;6.556;2022-12-18T04:00:07;-0.40;99.90
55036;DHT22;40936;53.008;6.556;2022-12-18T04:02:34;-0.60;99.90
55036;DHT22;40936;53.008;6.556;2022-12-18T04:05:04;0.80;99.90
55036;DHT22;40936;53.008;6.556;2022-12-18T04:07:30;0.90;99.90
55036;DHT22;40936;53.008;6.556;2022-12-18T04:09:58;-0.30;99.90
55036;DHT22;40936;53.008;6.556;2022-12-18T04:12:26;-1.50;99.90
55036;DHT22;40936;53.008;6.556;2022-12-18T04:14:54;-1.10;99.90
55036;DHT22;40936;53.008;6.556;2022-12-18T04:17:20;0.40;99.90
55036;DHT22;40936;53.008;6.556;2022-12-18T04:19:46;-1.70;99.90
55036;DHT22;40936;53.008;6.556;2022-12-18T04:22:11;-0.20;99.90
55036;DHT22;40936;53.008;6.556;2022-12-18T04:24:37;-1.10;99.90
55036;DHT22;40936;53.008;6.556;2022-12-18T04:27:03;-1.30;99.90
55036;DHT22;40936;53.008;6.556;2022-12-18T04:36:47;-0.50;99.90
55036;DHT22;40936;53.008;6.556;2022-12-18T04:41:40;-0.10;96.30
55036;DHT22;40936;53.008;6.556;2022-12-18T04:46:32;1.50;95.90
55036;DHT22;40936;53.008;6.556;2022-12-18T04:58:44;-0.30;84.40
55036;DHT22;40936;53.008;6.556;2022-12-18T05:01:11;-0.60;92.90
55036;DHT22;40936;53.008;6.556;2022-12-18T05:03:37;-0.80;92.90
55036;DHT22;40936;53.008;6.556;2022-12-18T05:06:05;-3.20;84.70
55036;DHT22;40936;53.008;6.556;2022-12-18T05:11:09;-2.00;40.40
55036;DHT22;40936;53.008;6.556;2022-12-18T05:13:35;-0.60;47.60
55036;DHT22;40936;53.008;6.556;2022-12-18T05:18:29;-2.10;35.60
55036;DHT22;40936;53.008;6.556;2022-12-18T05:23:22;-0.60;45.30
55036;DHT22;40936;53.008;6.556;2022-12-18T05:25:55;-1.60;48.60
55036;DHT22;40936;53.008;6.556;2022-12-18T05:28:22;-0.90;74.70
55036;DHT22;40936;53.008;6.556;2022-12-18T05:30:50;-2.90;78.70
55036;DHT22;40936;53.008;6.556;2022-12-18T05:33:17;-0.80;1.00
55036;DHT22;40936;53.008;6.556;2022-12-18T05:35:43;-1.50;29.00
55036;DHT22;40936;53.008;6.556;2022-12-18T05:40:35;-2.10;37.80
55036;DHT22;40936;53.008;6.556;2022-12-18T05:43:02;1.40;8.20
55036;DHT22;40936;53.008;6.556;2022-12-18T05:47:53;-0.40;29.10
55036;DHT22;40936;53.008;6.556;2022-12-18T05:57:37;-0.60;1.00
55036;DHT22;40936;53.008;6.556;2022-12-18T06:00:03;-1.40;1.00
55036;DHT22;40936;53.008;6.556;2022-12-18T06:04:55;-3.80;1.00
55036;DHT22;40936;53.008;6.556;2022-12-18T06:17:06;-1.00;3.50
55036;DHT22;40936;53.008;6.556;2022-12-18T06:24:24;-1.20;1.00
55036;DHT22;40936;53.008;6.556;2022-12-18T06:29:16;-1.40;1.00
55036;DHT22;40936;53.008;6.556;2022-12-18T06:34:07;-2.20;1.00
55036;DHT22;40936;53.008;6.556;2022-12-18T06:36:33;0.00;1.00
55036;DHT22;40936;53.008;6.556;2022-12-18T06:43:51;-1.80;1.00
55036;DHT22;40936;53.008;6.556;2022-12-18T06:46:17;0.50;1.00
55036;DHT22;40936;53.008;6.556;2022-12-18T06:51:08;-1.50;1.00
55036;DHT22;40936;53.008;6.556;2022-12-18T06:56:06;-1.40;7.20
55036;DHT22;40936;53.008;6.556;2022-12-18T07:01:03;-1.00;1.00
55036;DHT22;40936;53.008;6.556;2022-12-18T07:05:55;-0.10;1.00
55036;DHT22;40936;53.008;6.556;2022-12-18T07:15:43;0.30;1.00
55036;DHT22;40936;53.008;6.556;2022-12-18T07:23:02;-1.10;1.00
55036;DHT22;40936;53.008;6.556;2022-12-18T07:37:39;-1.30;1.00
55036;DHT22;40936;53.008;6.556;2022-12-18T07:44:58;-1.00;1.00
55036;DHT22;40936;53.008;6.556;2022-12-18T07:57:09;2.90;1.00
55036;DHT22;40936;53.008;6.556;2022-12-18T08:04:27;-1.40;99.90
55036;DHT22;40936;53.008;6.556;2022-12-18T08:09:19;1.80;99.90
55036;DHT22;40936;53.008;6.556;2022-12-18T08:11:45;-0.30;99.90
55036;DHT22;40936;53.008;6.556;2022-12-18T08:14:10;-0.80;99.90
55036;DHT22;40936;53.008;6.556;2022-12-18T08:21:30;-0.90;1.00
55036;DHT22;40936;53.008;6.556;2022-12-18T08:23:58;0.80;99.90
55036;DHT22;40936;53.008;6.556;2022-12-18T08:26:26;-0.80;99.90
55036;DHT22;40936;53.008;6.556;2022-12-18T08:28:54;-1.90;1.00
55036;DHT22;40936;53.008;6.556;2022-12-18T08:31:20;-0.60;1.00
55036;DHT22;40936;53.008;6.556;2022-12-18T08:33:48;-1.00;99.90
55036;DHT22;40936;53.008;6.556;2022-12-18T08:36:15;-0.60;99.90
55036;DHT22;40936;53.008;6.556;2022-12-18T08:41:09;-0.50;99.90
55036;DHT22;40936;53.008;6.556;2022-12-18T08:46:21;1.50;99.90
55036;DHT22;40936;53.008;6.556;2022-12-18T08:48:48;2.40;99.90
55036;DHT22;40936;53.008;6.556;2022-12-18T08:51:18;-0.30;99.90
55036;DHT22;40936;53.008;6.556;2022-12-18T08:56:11;-2.80;99.90
55036;DHT22;40936;53.008;6.556;2022-12-18T09:01:08;-0.40;99.90
55036;DHT22;40936;53.008;6.556;2022-12-18T09:03:34;2.90;99.90
55036;DHT22;40936;53.008;6.556;2022-12-18T09:06:01;-2.00;99.90
55036;DHT22;40936;53.008;6.556;2022-12-18T09:13:19;1.40;99.90
55036;DHT22;40936;53.008;6.556;2022-12-18T09:15:47;-0.10;99.90
55036;DHT22;40936;53.008;6.556;2022-12-18T09:18:14;-0.20;99.90
55036;DHT22;40936;53.008;6.556;2022-12-18T09:20:40;-0.80;99.90
55036;DHT22;40936;53.008;6.556;2022-12-18T09:23:06;0.10;99.90
55036;DHT22;40936;53.008;6.556;2022-12-18T09:25:33;-0.10;99.90
55036;DHT22;40936;53.008;6.556;2022-12-18T09:28:02;0.00;99.90
55036;DHT22;40936;53.008;6.556;2022-12-18T09:30:28;0.10;99.90
55036;DHT22;40936;53.008;6.556;2022-12-18T09:32:54;0.50;99.90
55036;DHT22;40936;53.008;6.556;2022-12-18T09:35:20;0.00;99.90
55036;DHT22;40936;53.008;6.556;2022-12-18T09:37:46;-0.50;99.90
55036;DHT22;40936;53.008;6.556;2022-12-18T09:40:16;-0.10;99.90
55036;DHT22;40936;53.008;6.556;2022-12-18T09:42:49;0.60;99.90
55036;DHT22;40936;53.008;6.556;2022-12-18T09:45:17;0.20;99.90
55036;DHT22;40936;53.008;6.556;2022-12-18T09:47:45;0.70;99.90
55036;DHT22;40936;53.008;6.556;2022-12-18T09:52:52;0.70;99.90
55036;DHT22;40936;53.008;6.556;2022-12-18T09:55:31;2.20;99.90
55036;DHT22;40936;53.008;6.556;2022-12-18T09:58:07;1.30;99.90
55036;DHT22;40936;53.008;6.556;2022-12-18T10:00:37;0.70;99.90
55036;DHT22;40936;53.008;6.556;2022-12-18T10:03:09;0.20;99.90
55036;DHT22;40936;53.008;6.556;2022-12-18T10:10:50;1.10;99.90
55036;DHT22;40936;53.008;6.556;2022-12-18T10:13:43;-0.20;99.90
55036;DHT22;40936;53.008;6.556;2022-12-18T10:24:20;1.00;99.90
55036;DHT22;40936;53.008;6.556;2022-12-18T10:26:49;1.40;99.90
55036;DHT22;40936;53.008;6.556;2022-12-18T10:29:16;1.00;99.90
55036;DHT22;40936;53.008;6.556;2022-12-18T10:31:42;-0.20;99.90
55036;DHT22;40936;53.008;6.556;2022-12-18T10:34:10;1.10;99.90
55036;DHT22;40936;53.008;6.556;2022-12-18T10:36:36;-0.70;99.90
55036;DHT22;40936;53.008;6.556;2022-12-18T10:39:23;1.20;99.90
55036;DHT22;40936;53.008;6.556;2022-12-18T10:41:48;4.20;99.90
55036;DHT22;40936;53.008;6.556;2022-12-18T10:44:20;1.20;99.90
55036;DHT22;40936;53.008;6.556;2022-12-18T10:46:48;-1.20;99.90
55036;DHT22;40936;53.008;6.556;2022-12-18T10:49:28;0.20;99.90
55036;DHT22;40936;53.008;6.556;2022-12-18T10:52:25;1.60;99.90
55036;DHT22;40936;53.008;6.556;2022-12-18T10:55:03;1.40;99.90
55036;DHT22;40936;53.008;6.556;2022-12-18T10:57:32;1.10;99.90
55036;DHT22;40936;53.008;6.556;2022-12-18T11:00:18;2.00;99.90
55036;DHT22;40936;53.008;6.556;2022-12-18T11:02:45;1.70;99.90
55036;DHT22;40936;53.008;6.556;2022-12-18T11:05:28;1.80;99.90
55036;DHT22;40936;53.008;6.556;2022-12-18T11:07:55;2.70;99.90
55036;DHT22;40936;53.008;6.556;2022-12-18T11:10:28;1.50;99.90
55036;DHT22;40936;53.008;6.556;2022-12-18T11:12:56;1.60;99.90
55036;DHT22;40936;53.008;6.556;2022-12-18T11:15:27;1.50;99.90
55036;DHT22;40936;53.008;6.556;2022-12-18T11:17:53;2.40;92.80
55036;DHT22;40936;53.008;6.556;2022-12-18T11:20:34;2.70;99.90
55036;DHT22;40936;53.008;6.556;2022-12-18T11:23:10;2.90;97.90
55036;DHT22;40936;53.008;6.556;2022-12-18T11:25:37;2.30;99.90
55036;DHT22;40936;53.008;6.556;2022-12-18T11:28:04;2.40;95.90
55036;DHT22;40936;53.008;6.556;2022-12-18T11:30:32;2.00;54.80
55036;DHT22;40936;53.008;6.556;2022-12-18T11:33:14;3.80;99.90
55036;DHT22;40936;53.008;6.556;2022-12-18T11:35:48;2.10;68.90
55036;DHT22;40936;53.008;6.556;2022-12-18T11:38:24;3.90;99.90
55036;DHT22;40936;53.008;6.556;2022-12-18T11:46:34;2.00;74.20
55036;DHT22;40936;53.008;6.556;2022-12-18T11:49:06;2.00;89.10
55036;DHT22;40936;53.008;6.556;2022-12-18T11:51:48;1.30;71.00
55036;DHT22;40936;53.008;6.556;2022-12-18T11:54:16;0.40;62.80
55036;DHT22;40936;53.008;6.556;2022-12-18T11:59:55;3.60;75.90
55036;DHT22;40936;53.008;6.556;2022-12-18T12:05:25;1.70;91.10
55036;DHT22;40936;53.008;6.556;2022-12-18T12:08:25;3.10;48.30
55036;DHT22;40936;53.008;6.556;2022-12-18T12:21:53;3.50;41.20
55036;DHT22;40936;53.008;6.556;2022-12-18T12:24:34;3.20;65.40
55036;DHT22;40936;53.008;6.556;2022-12-18T12:29:58;2.60;27.60
55036;DHT22;40936;53.008;6.556;2022-12-18T12:35:15;2.00;24.30
55036;DHT22;40936;53.008;6.556;2022-12-18T12:40:30;2.30;1.00
55036;DHT22;40936;53.008;6.556;2022-12-18T12:43:07;4.60;8.10
55036;DHT22;40936;53.008;6.556;2022-12-18T12:50:55;3.10;1.00
55036;DHT22;40936;53.008;6.556;2022-12-18T12:53:28;2.40;14.00
55036;DHT22;40936;53.008;6.556;2022-12-18T12:55:56;2.40;1.00
55036;DHT22;40936;53.008;6.556;2022-12-18T12:58:41;2.10;1.00
55036;DHT22;40936;53.008;6.556;2022-12-18T13:01:25;2.30;1.00
55036;DHT22;40936;53.008;6.556;2022-12-18T13:03:59;3.70;1.00
55036;DHT22;40936;53.008;6.556;2022-12-18T13:34:23;2.40;1.00
55036;DHT22;40936;53.008;6.556;2022-12-18T13:36:50;1.70;1.00
55036;DHT22;40936;53.008;6.556;2022-12-18T13:42:31;1.10;1.00
55036;DHT22;40936;53.008;6.556;2022-12-18T13:44:58;3.60;1.00
55036;DHT22;40936;53.008;6.556;2022-12-18T13:47:37;6.30;14.40
55036;DHT22;40936;53.008;6.556;2022-12-18T13:50:20;3.60;1.00
55036;DHT22;40936;53.008;6.556;2022-12-18T13:52:59;1.60;1.00
55036;DHT22;40936;53.008;6.556;2022-12-18T13:55:25;3.00;2.10
55036;DHT22;40936;53.008;6.556;2022-12-18T13:58:03;3.60;10.70
55036;DHT22;40936;53.008;6.556;2022-12-18T14:00:29;3.00;1.00
55036;DHT22;40936;53.008;6.556;2022-12-18T14:02:56;2.80;1.00
55036;DHT22;40936;53.008;6.556;2022-12-18T14:05:28;3.00;1.00
55036;DHT22;40936;53.008;6.556;2022-12-18T14:07:59;2.60;1.00
55036;DHT22;40936;53.008;6.556;2022-12-18T14:10:26;5.20;1.00
55036;DHT22;40936;53.008;6.556;2022-12-18T14:12:52;3.40;1.00
55036;DHT22;40936;53.008;6.556;2022-12-18T14:15:50;3.10;1.00
55036;DHT22;40936;53.008;6.556;2022-12-18T14:18:38;2.70;1.00
55036;DHT22;40936;53.008;6.556;2022-12-18T14:21:14;2.40;1.00
55036;DHT22;40936;53.008;6.556;2022-12-18T14:23:42;3.50;1.00
55036;DHT22;40936;53.008;6.556;2022-12-18T14:26:28;2.50;1.00
55036;DHT22;40936;53.008;6.556;2022-12-18T14:29:26;1.70;1.00
55036;DHT22;40936;53.008;6.556;2022-12-18T14:32:14;2.60;1.00
55036;DHT22;40936;53.008;6.556;2022-12-18T14:34:45;2.30;1.00
55036;DHT22;40936;53.008;6.556;2022-12-18T14:37:13;2.70;1.00
55036;DHT22;40936;53.008;6.556;2022-12-18T14:39:39;4.20;1.00
55036;DHT22;40936;53.008;6.556;2022-12-18T14:42:05;2.40;1.00
55036;DHT22;40936;53.008;6.556;2022-12-18T14:46:57;2.30;1.00
55036;DHT22;40936;53.008;6.556;2022-12-18T14:49:32;2.10;1.00
55036;DHT22;40936;53.008;6.556;2022-12-18T14:52:03;4.90;1.00
55036;DHT22;40936;53.008;6.556;2022-12-18T14:54:31;2.10;1.00
55036;DHT22;40936;53.008;6.556;2022-12-18T14:57:02;3.20;1.00
55036;DHT22;40936;53.008;6.556;2022-12-18T14:59:30;1.20;1.00
55036;DHT22;40936;53.008;6.556;2022-12-18T15:02:25;1.40;1.00
55036;DHT22;40936;53.008;6.556;2022-12-18T15:05:16;0.80;1.00
55036;DHT22;40936;53.008;6.556;2022-12-18T15:07:44;1.20;1.00
55036;DHT22;40936;53.008;6.556;2022-12-18T15:10:15;2.40;11.20
55036;DHT22;40936;53.008;6.556;2022-12-18T15:18:19;2.30;1.00
55036;DHT22;40936;53.008;6.556;2022-12-18T15:20:50;0.90;1.00
55036;DHT22;40936;53.008;6.556;2022-12-18T15:26:01;1.90;1.00
55036;DHT22;40936;53.008;6.556;2022-12-18T15:31:00;2.30;1.00
55036;DHT22;40936;53.008;6.556;2022-12-18T15:33:31;2.00;1.00
55036;DHT22;40936;53.008;6.556;2022-12-18T15:36:03;3.10;1.00
55036;DHT22;40936;53.008;6.556;2022-12-18T15:38:30;2.80;1.00
55036;DHT22;40936;53.008;6.556;2022-12-18T15:40:56;3.60;2.50
55036;DHT22;40936;53.008;6.556;2022-12-18T15:43:23;1.40;1.00
55036;DHT22;40936;53.008;6.556;2022-12-18T15:46:02;3.90;1.00
55036;DHT22;40936;53.008;6.556;2022-12-18T15:48:29;2.00;1.00
55036;DHT22;40936;53.008;6.556;2022-12-18T15:50:56;2.20;1.00
55036;DHT22;40936;53.008;6.556;2022-12-18T15:53:26;3.10;1.00
55036;DHT22;40936;53.008;6.556;2022-12-18T15:58:38;1.70;1.00
55036;DHT22;40936;53.008;6.556;2022-12-18T16:01:04;1.30;1.00
55036;DHT22;40936;53.008;6.556;2022-12-18T16:05:56;2.70;1.00
55036;DHT22;40936;53.008;6.556;2022-12-18T16:08:23;2.00;1.00
55036;DHT22;40936;53.008;6.556;2022-12-18T16:10:49;3.70;1.00
55036;DHT22;40936;53.008;6.556;2022-12-18T16:13:16;1.80;1.00
55036;DHT22;40936;53.008;6.556;2022-12-18T16:15:44;1.60;1.00
55036;DHT22;40936;53.008;6.556;2022-12-18T16:18:10;4.10;1.00
55036;DHT22;40936;53.008;6.556;2022-12-18T16:20:36;3.00;1.00
55036;DHT22;40936;53.008;6.556;2022-12-18T16:23:02;2.00;1.00
55036;DHT22;40936;53.008;6.556;2022-12-18T16:27:55;1.80;1.00
55036;DHT22;40936;53.008;6.556;2022-12-18T16:30:26;2.90;6.60
55036;DHT22;40936;53.008;6.556;2022-12-18T16:32:54;0.90;1.00
55036;DHT22;40936;53.008;6.556;2022-12-18T16:35:20;1.00;9.30
55036;DHT22;40936;53.008;6.556;2022-12-18T16:37:46;3.20;1.00
55036;DHT22;40936;53.008;6.556;2022-12-18T16:40:14;0.90;1.50
55036;DHT22;40936;53.008;6.556;2022-12-18T16:42:42;-0.30;13.00
55036;DHT22;40936;53.008;6.556;2022-12-18T16:45:11;1.80;1.00
55036;DHT22;40936;53.008;6.556;2022-12-18T16:50:07;2.10;8.60
55036;DHT22;40936;53.008;6.556;2022-12-18T16:52:34;5.40;7.50
55036;DHT22;40936;53.008;6.556;2022-12-18T16:54:59;2.20;30.60
55036;DHT22;40936;53.008;6.556;2022-12-18T16:57:25;0.30;13.30
55036;DHT22;40936;53.008;6.556;2022-12-18T17:02:20;2.10;1.00
55036;DHT22;40936;53.008;6.556;2022-12-18T17:04:46;1.90;4.10
55036;DHT22;40936;53.008;6.556;2022-12-18T17:07:13;3.70;6.70
55036;DHT22;40936;53.008;6.556;2022-12-18T17:09:39;1.80;1.00
55036;DHT22;40936;53.008;6.556;2022-12-18T17:12:05;1.80;1.00
55036;DHT22;40936;53.008;6.556;2022-12-18T17:14:31;1.90;1.00
55036;DHT22;40936;53.008;6.556;2022-12-18T17:16:57;4.40;1.00
55036;DHT22;40936;53.008;6.556;2022-12-18T17:19:25;3.80;1.00
55036;DHT22;40936;53.008;6.556;2022-12-18T17:21:51;2.00;1.00
55036;DHT22;40936;53.008;6.556;2022-12-18T17:26:44;2.30;1.00
55036;DHT22;40936;53.008;6.556;2022-12-18T17:29:15;2.00;1.00
55036;DHT22;40936;53.008;6.556;2022-12-18T17:31:41;3.90;1.00
55036;DHT22;40936;53.008;6.556;2022-12-18T17:34:09;2.00;1.00
55036;DHT22;40936;53.008;6.556;2022-12-18T17:36:35;0.80;1.00
55036;DHT22;40936;53.008;6.556;2022-12-18T17:39:03;2.00;1.00
55036;DHT22;40936;53.008;6.556;2022-12-18T17:41:29;1.10;1.00
55036;DHT22;40936;53.008;6.556;2022-12-18T17:44:03;2.90;1.00
55036;DHT22;40936;53.008;6.556;2022-12-18T17:46:32;2.10;1.00
55036;DHT22;40936;53.008;6.556;2022-12-18T17:48:59;2.10;1.00
55036;DHT22;40936;53.008;6.556;2022-12-18T17:51:26;1.40;1.00
55036;DHT22;40936;53.008;6.556;2022-12-18T17:53:52;4.70;3.10
55036;DHT22;40936;53.008;6.556;2022-12-18T17:56:20;3.60;1.00
55036;DHT22;40936;53.008;6.556;2022-12-18T17:58:46;0.80;1.00
55036;DHT22;40936;53.008;6.556;2022-12-18T18:01:14;1.10;1.00
55036;DHT22;40936;53.008;6.556;2022-12-18T18:03:40;0.30;1.00
55036;DHT22;40936;53.008;6.556;2022-12-18T18:06:07;1.00;1.00
55036;DHT22;40936;53.008;6.556;2022-12-18T18:08:34;2.30;1.00
55036;DHT22;40936;53.008;6.556;2022-12-18T18:11:04;2.00;1.00
55036;DHT22;40936;53.008;6.556;2022-12-18T18:13:48;3.60;1.00
55036;DHT22;40936;53.008;6.556;2022-12-18T18:16:37;1.10;1.00
55036;DHT22;40936;53.008;6.556;2022-12-18T18:19:06;2.10;1.00
55036;DHT22;40936;53.008;6.556;2022-12-18T18:21:33;2.30;1.00
55036;DHT22;40936;53.008;6.556;2022-12-18T18:24:01;4.00;1.00
55036;DHT22;40936;53.008;6.556;2022-12-18T18:26:29;3.90;1.00
55036;DHT22;40936;53.008;6.556;2022-12-18T18:28:56;2.20;1.00
55036;DHT22;40936;53.008;6.556;2022-12-18T18:31:22;2.20;1.00
55036;DHT22;40936;53.008;6.556;2022-12-18T18:33:47;2.80;1.00
55036;DHT22;40936;53.008;6.556;2022-12-18T18:36:14;4.70;1.00
55036;DHT22;40936;53.008;6.556;2022-12-18T18:38:39;2.00;1.00
55036;DHT22;40936;53.008;6.556;2022-12-18T18:41:06;1.90;1.00
55036;DHT22;40936;53.008;6.556;2022-12-18T18:43:32;2.50;1.00
55036;DHT22;40936;53.008;6.556;2022-12-18T18:45:59;2.30;1.00
55036;DHT22;40936;53.008;6.556;2022-12-18T18:48:27;-0.50;1.00
55036;DHT22;40936;53.008;6.556;2022-12-18T18:51:04;2.00;1.00
55036;DHT22;40936;53.008;6.556;2022-12-18T18:53:34;2.20;1.00
55036;DHT22;40936;53.008;6.556;2022-12-18T18:56:00;2.90;1.00
55036;DHT22;40936;53.008;6.556;2022-12-18T18:58:26;2.70;1.00
55036;DHT22;40936;53.008;6.556;2022-12-18T19:01:00;1.70;1.00
55036;DHT22;40936;53.008;6.556;2022-12-18T19:03:27;1.70;1.00
55036;DHT22;40936;53.008;6.556;2022-12-18T19:05:54;3.80;1.00
55036;DHT22;40936;53.008;6.556;2022-12-18T19:08:28;2.20;1.00
55036;DHT22;40936;53.008;6.556;2022-12-18T19:10:56;1.80;1.00
55036;DHT22;40936;53.008;6.556;2022-12-18T19:13:22;3.60;1.00
55036;DHT22;40936;53.008;6.556;2022-12-18T19:15:54;0.80;1.00
55036;DHT22;40936;53.008;6.556;2022-12-18T19:18:21;1.40;1.00
55036;DHT22;40936;53.008;6.556;2022-12-18T19:20:58;2.30;1.00
55036;DHT22;40936;53.008;6.556;2022-12-18T19:25:50;2.70;1.00
55036;DHT22;40936;53.008;6.556;2022-12-18T19:30:42;3.90;1.00
55036;DHT22;40936;53.008;6.556;2022-12-18T19:35:34;2.80;1.00
55036;DHT22;40936;53.008;6.556;2022-12-18T19:38:00;3.50;1.00
55036;DHT22;40936;53.008;6.556;2022-12-18T19:40:25;4.30;1.00
55036;DHT22;40936;53.008;6.556;2022-12-18T19:45:17;2.10;1.00
55036;DHT22;40936;53.008;6.556;2022-12-18T19:47:43;0.90;1.00
55036;DHT22;40936;53.008;6.556;2022-12-18T19:50:09;3.90;1.00
55036;DHT22;40936;53.008;6.556;2022-12-18T19:52:35;2.80;1.00
55036;DHT22;40936;53.008;6.556;2022-12-18T19:55:01;2.20;1.00
55036;DHT22;40936;53.008;6.556;2022-12-18T19:59:52;1.50;1.00
55036;DHT22;40936;53.008;6.556;2022-12-18T20:02:18;2.80;1.00
55036;DHT22;40936;53.008;6.556;2022-12-18T20:04:45;1.10;1.00
55036;DHT22;40936;53.008;6.556;2022-12-18T20:07:11;4.90;1.00
55036;DHT22;40936;53.008;6.556;2022-12-18T20:09:37;2.20;1.00
55036;DHT22;40936;53.008;6.556;2022-12-18T20:12:03;2.70;5.40
55036;DHT22;40936;53.008;6.556;2022-12-18T20:16:55;2.00;1.00
55036;DHT22;40936;53.008;6.556;2022-12-18T20:19:21;2.50;1.00
55036;DHT22;40936;53.008;6.556;2022-12-18T20:21:47;4.00;1.00
55036;DHT22;40936;53.008;6.556;2022-12-18T20:24:12;2.70;1.00
55036;DHT22;40936;53.008;6.556;2022-12-18T20:26:38;2.90;1.00
55036;DHT22;40936;53.008;6.556;2022-12-18T20:29:04;1.60;1.00
55036;DHT22;40936;53.008;6.556;2022-12-18T20:33:56;2.60;1.00
55036;DHT22;40936;53.008;6.556;2022-12-18T20:36:22;3.50;1.00
55036;DHT22;40936;53.008;6.556;2022-12-18T20:38:48;1.60;1.00
55036;DHT22;40936;53.008;6.556;2022-12-18T20:41:17;5.80;1.00
55036;DHT22;40936;53.008;6.556;2022-12-18T20:43:43;2.30;1.00
55036;DHT22;40936;53.008;6.556;2022-12-18T20:46:12;3.90;1.00
55036;DHT22;40936;53.008;6.556;2022-12-18T20:48:38;2.10;1.00
55036;DHT22;40936;53.008;6.556;2022-12-18T20:51:09;1.30;1.00
55036;DHT22;40936;53.008;6.556;2022-12-18T20:53:36;4.00;1.00
55036;DHT22;40936;53.008;6.556;2022-12-18T20:56:10;3.80;1.00
55036;DHT22;40936;53.008;6.556;2022-12-18T20:58:36;4.80;1.00
55036;DHT22;40936;53.008;6.556;2022-12-18T21:01:08;2.60;1.00
55036;DHT22;40936;53.008;6.556;2022-12-18T21:03:34;2.60;1.00
55036;DHT22;40936;53.008;6.556;2022-12-18T21:05:59;2.50;1.00
55036;DHT22;40936;53.008;6.556;2022-12-18T21:08:25;2.60;1.00
55036;DHT22;40936;53.008;6.556;2022-12-18T21:10:51;2.30;1.00
55036;DHT22;40936;53.008;6.556;2022-12-18T21:13:17;3.60;1.00
55036;DHT22;40936;53.008;6.556;2022-12-18T21:15:43;2.50;1.00
55036;DHT22;40936;53.008;6.556;2022-12-18T21:18:09;2.60;1.00
55036;DHT22;40936;53.008;6.556;2022-12-18T21:20:34;2.50;1.00
55036;DHT22;40936;53.008;6.556;2022-12-18T21:23:00;0.50;1.00
55036;DHT22;40936;53.008;6.556;2022-12-18T21:25:31;4.10;1.00
55036;DHT22;40936;53.008;6.556;2022-12-18T21:27:56;4.40;1.00
55036;DHT22;40936;53.008;6.556;2022-12-18T21:30:22;3.90;1.00
55036;DHT22;40936;53.008;6.556;2022-12-18T21:32:48;2.60;1.00
55036;DHT22;40936;53.008;6.556;2022-12-18T21:35:14;4.00;1.00
55036;DHT22;40936;53.008;6.556;2022-12-18T21:37:39;4.50;1.00
55036;DHT22;40936;53.008;6.556;2022-12-18T21:40:06;5.30;1.00
55036;DHT22;40936;53.008;6.556;2022-12-18T21:42:32;0.60;9.90
55036;DHT22;40936;53.008;6.556;2022-12-18T21:45:16;2.40;1.00